createdAt,value
2018-10-06T00:00:21.520Z,101146.20
2018-10-06T00:02:51.199Z,101151.84
2018-10-06T00:05:20.398Z,101151.39
2018-10-06T00:07:50.130Z,101148.41
2018-10-06T00:10:19.210Z,101144.84
2018-10-06T00:12:48.187Z,101144.64
2018-10-06T00:15:17.384Z,101137.92
2018-10-06T00:17:46.411Z,101134.38
2018-10-06T00:20:15.464Z,101131.99
2018-10-06T00:22:44.671Z,101126.63
2018-10-06T00:25:13.676Z,101125.66
2018-10-06T00:27:43.592Z,101125.18
2018-10-06T00:35:59.929Z,101128.01
2018-10-06T00:38:28.947Z,101114.39
2018-10-06T00:40:57.945Z,101112.56
2018-10-06T00:43:26.921Z,101095.92
2018-10-06T00:45:56.040Z,101109.06
2018-10-06T00:48:25.168Z,101115.69
2018-10-06T00:50:54.385Z,101111.61
2018-10-06T00:53:23.424Z,101100.11
2018-10-06T00:55:52.492Z,101093.25
2018-10-06T00:58:21.540Z,101095.17
2018-10-06T01:00:50.636Z,101097.69
2018-10-06T01:03:19.685Z,101118.20
2018-10-06T01:05:48.710Z,101121.47
2018-10-06T01:08:17.747Z,101112.59
2018-10-06T01:10:46.901Z,101107.95
2018-10-06T01:13:15.987Z,101120.16
2018-10-06T01:15:44.979Z,101121.69
2018-10-06T01:18:13.960Z,101121.32
2018-10-06T01:20:43.022Z,101120.16
2018-10-06T01:23:12.162Z,101100.39
2018-10-06T01:25:41.362Z,101090.80
2018-10-06T01:28:10.352Z,101087.02
2018-10-06T01:30:39.376Z,101086.79
2018-10-06T01:33:08.412Z,101090.97
2018-10-06T01:35:37.385Z,101085.05
2018-10-06T01:38:07.763Z,101080.69
2018-10-06T01:40:36.798Z,101082.60
2018-10-06T01:43:05.861Z,101082.06
2018-10-06T01:45:34.901Z,101092.13
2018-10-06T01:48:03.853Z,101091.81
2018-10-06T01:50:32.936Z,101084.63
2018-10-06T01:53:01.944Z,101085.38
2018-10-06T01:55:31.016Z,101082.59
2018-10-06T01:58:00.159Z,101082.81
2018-10-06T02:00:29.151Z,101081.11
2018-10-06T02:02:58.135Z,101076.41
2018-10-06T02:05:27.804Z,101073.20
2018-10-06T02:07:56.884Z,101059.91
2018-10-06T02:10:25.920Z,101071.42
2018-10-06T02:12:54.913Z,101064.09
2018-10-06T02:15:24.036Z,101067.63
2018-10-06T02:17:53.026Z,101072.53
2018-10-06T02:20:22.082Z,101059.08
2018-10-06T02:22:51.209Z,101054.42
2018-10-06T02:25:20.260Z,101056.63
2018-10-06T02:27:49.318Z,101048.13
2018-10-06T02:30:18.350Z,101047.93
2018-10-06T02:32:47.466Z,101038.13
2018-10-06T02:35:16.530Z,101036.51
2018-10-06T02:37:45.520Z,101037.42
2018-10-06T02:40:14.572Z,101040.33
2018-10-06T02:42:43.609Z,101034.34
2018-10-06T02:45:12.628Z,101028.09
2018-10-06T02:47:41.720Z,101019.15
2018-10-06T02:50:10.793Z,101024.39
2018-10-06T02:52:39.780Z,101030.16
2018-10-06T02:55:09.007Z,101035.11
2018-10-06T02:57:38.161Z,101032.44
2018-10-06T03:00:07.322Z,101040.34
2018-10-06T03:02:36.503Z,101035.95
2018-10-06T03:05:05.493Z,101028.59
2018-10-06T03:07:34.560Z,101025.92
2018-10-06T03:10:03.582Z,101018.08
2018-10-06T03:12:32.597Z,101020.05
2018-10-06T03:15:01.743Z,101013.27
2018-10-06T03:17:30.945Z,101017.98
2018-10-06T03:19:59.939Z,101003.55
2018-10-06T03:22:29.834Z,101006.88
2018-10-06T03:24:58.910Z,101003.93
2018-10-06T03:27:27.969Z,101009.75
2018-10-06T03:29:56.959Z,101014.45
2018-10-06T03:32:25.966Z,101024.86
2018-10-06T03:34:54.966Z,101017.19
2018-10-06T03:37:24.968Z,101019.67
2018-10-06T03:39:53.951Z,101012.38
2018-10-06T03:42:23.087Z,101023.02
2018-10-06T03:44:52.096Z,101026.03
2018-10-06T03:47:21.100Z,101033.66
2018-10-06T03:49:50.161Z,101034.77
2018-10-06T03:52:19.173Z,101027.75
2018-10-06T03:54:48.388Z,101024.84
2018-10-06T03:57:17.463Z,101037.14
2018-10-06T03:59:46.542Z,101032.46
2018-10-06T04:02:15.533Z,101026.74
2018-10-06T04:04:44.523Z,101018.55
2018-10-06T04:07:13.594Z,101025.09
2018-10-06T04:09:42.729Z,101019.14
2018-10-06T04:12:11.804Z,101020.56
2018-10-06T04:14:40.804Z,101016.77
2018-10-06T04:17:09.825Z,101025.02
2018-10-06T04:19:38.876Z,101032.17
2018-10-06T04:22:07.945Z,101029.20
2018-10-06T04:24:36.942Z,101021.34
2018-10-06T04:27:05.939Z,101021.34
2018-10-06T04:29:34.972Z,101020.52
2018-10-06T04:32:04.095Z,101033.39
2018-10-06T04:34:33.112Z,101022.47
2018-10-06T04:37:03.193Z,101030.66
2018-10-06T04:39:32.351Z,101022.17
2018-10-06T04:42:01.343Z,101029.25
2018-10-06T04:44:30.521Z,101027.92
2018-10-06T04:46:59.590Z,101022.17
2018-10-06T04:49:28.609Z,101024.03
2018-10-06T04:51:57.800Z,101028.95
2018-10-06T04:54:26.803Z,101030.86
2018-10-06T04:56:55.797Z,101033.30
2018-10-06T04:59:24.795Z,101027.05
2018-10-06T05:01:53.789Z,101046.46
2018-10-06T05:04:23.418Z,101043.78
2018-10-06T05:06:52.440Z,101057.17
2018-10-06T05:09:21.431Z,101059.08
2018-10-06T05:11:51.052Z,101063.22
2018-10-06T05:14:20.111Z,101058.58
2018-10-06T05:16:49.100Z,101055.34
2018-10-06T05:19:18.352Z,101053.70
2018-10-06T05:21:47.372Z,101061.89
2018-10-06T05:24:16.651Z,101070.90
2018-10-06T05:26:45.716Z,101077.44
2018-10-06T05:29:14.733Z,101081.53
2018-10-06T05:31:43.838Z,101084.30
2018-10-06T05:34:12.998Z,101082.67
2018-10-06T05:36:42.529Z,101075.05
2018-10-06T05:39:12.420Z,101082.16
2018-10-06T05:41:41.433Z,101085.45
2018-10-06T05:44:10.443Z,101083.01
2018-10-06T05:46:39.553Z,101074.59
2018-10-06T05:49:08.648Z,101079.80
2018-10-06T05:51:37.663Z,101071.63
2018-10-06T05:54:06.646Z,101079.02
2018-10-06T05:56:35.603Z,101089.12
2018-10-06T05:59:05.031Z,101091.58
2018-10-06T06:01:34.060Z,101093.23
2018-10-06T06:04:03.055Z,101094.05
2018-10-06T06:06:32.035Z,101090.52
2018-10-06T06:09:01.040Z,101103.32
2018-10-06T06:11:30.037Z,101096.25
2018-10-06T06:13:59.125Z,101103.06
2018-10-06T06:16:28.297Z,101101.41
2018-10-06T06:18:57.468Z,101097.60
2018-10-06T06:21:26.473Z,101092.17
2018-10-06T06:23:55.473Z,101088.91
2018-10-06T06:26:24.663Z,101089.18
2018-10-06T06:28:53.706Z,101090.80
2018-10-06T06:31:22.908Z,101085.63
2018-10-06T06:33:51.895Z,101083.72
2018-10-06T06:36:20.988Z,101094.88
2018-10-06T06:38:50.167Z,101091.36
2018-10-06T06:41:19.243Z,101097.35
2018-10-06T06:43:48.633Z,101093.01
2018-10-06T06:46:19.726Z,101091.36
2018-10-06T06:48:48.779Z,101089.16
2018-10-06T06:51:17.965Z,101095.19
2018-10-06T06:53:47.040Z,101090.53
2018-10-06T06:56:16.119Z,101096.53
2018-10-06T06:58:45.896Z,101104.42
2018-10-06T07:01:14.941Z,101108.24
2018-10-06T07:03:44.072Z,101117.78
2018-10-06T07:06:13.240Z,101126.48
2018-10-06T07:08:42.467Z,101122.94
2018-10-06T07:11:12.638Z,101133.02
2018-10-06T07:13:41.676Z,101131.13
2018-10-06T07:16:10.796Z,101128.94
2018-10-06T07:18:40.137Z,101131.66
2018-10-06T07:21:09.223Z,101137.67
2018-10-06T07:23:38.507Z,101138.75
2018-10-06T07:26:07.568Z,101143.94
2018-10-06T07:28:36.693Z,101146.39
2018-10-06T07:31:07.061Z,101147.45
2018-10-06T07:33:36.067Z,101149.91
2018-10-06T07:36:05.206Z,101157.00
2018-10-06T07:38:35.227Z,101152.90
2018-10-06T07:41:04.218Z,101149.37
2018-10-06T07:43:33.329Z,101143.91
2018-10-06T07:46:02.446Z,101157.28
2018-10-06T07:48:31.582Z,101157.53
2018-10-06T07:51:01.319Z,101152.36
2018-10-06T07:53:30.528Z,101149.63
2018-10-06T07:55:59.773Z,101157.55
2018-10-06T07:58:28.840Z,101162.98
2018-10-06T08:00:58.288Z,101156.45
2018-10-06T08:03:27.640Z,101161.63
2018-10-06T08:05:57.114Z,101163.79
2018-10-06T08:08:26.269Z,101165.16
2018-10-06T08:10:55.384Z,101161.61
2018-10-06T08:13:24.912Z,101171.97
2018-10-06T08:15:54.059Z,101170.61
2018-10-06T08:18:23.097Z,101176.61
2018-10-06T08:20:52.325Z,101176.33
2018-10-06T08:23:22.106Z,101175.54
2018-10-06T08:25:52.021Z,101173.34
2018-10-06T08:28:27.416Z,101183.70
2018-10-06T08:30:56.513Z,101187.55
2018-10-06T08:33:25.663Z,101187.00
2018-10-06T08:35:54.697Z,101194.92
2018-10-06T08:38:23.829Z,101205.56
2018-10-06T08:40:53.049Z,101200.11
2018-10-06T08:43:22.191Z,101207.73
2018-10-06T08:45:52.297Z,101209.92
2018-10-06T08:48:21.284Z,101219.20
2018-10-06T08:50:50.450Z,101217.83
2018-10-06T08:53:19.699Z,101217.83
2018-10-06T08:55:48.723Z,101222.45
2018-10-06T08:58:17.749Z,101225.47
2018-10-06T09:00:46.897Z,101226.02
2018-10-06T09:03:16.110Z,101229.30
2018-10-06T09:05:46.260Z,101232.84
2018-10-06T09:08:15.291Z,101233.11
2018-10-06T09:10:44.489Z,101238.85
2018-10-06T09:13:14.699Z,101238.56
2018-10-06T09:15:44.049Z,101245.67
2018-10-06T09:18:13.224Z,101248.40
2018-10-06T09:20:42.428Z,101251.64
2018-10-06T09:23:14.485Z,101253.00
2018-10-06T09:25:43.828Z,101255.47
2018-10-06T09:28:13.135Z,101256.00
2018-10-06T09:30:45.931Z,101259.27
2018-10-06T09:33:15.078Z,101263.11
2018-10-06T09:35:44.193Z,101257.65
2018-10-06T09:38:14.461Z,101261.47
2018-10-06T09:40:43.985Z,101254.35
2018-10-06T09:43:13.092Z,101261.72
2018-10-06T09:45:42.362Z,101262.53
2018-10-06T09:48:16.459Z,101260.66
2018-10-06T09:50:45.793Z,101261.47
2018-10-06T09:53:15.184Z,101272.94
2018-10-06T09:55:44.292Z,101279.75
2018-10-06T09:58:13.477Z,101284.36
2018-10-06T10:00:47.653Z,101281.94
2018-10-06T10:03:23.731Z,101275.65
2018-10-06T10:05:54.548Z,101274.03
2018-10-06T10:08:23.670Z,101276.21
2018-10-06T10:10:53.062Z,101289.57
2018-10-06T10:13:22.716Z,101283.02
2018-10-06T10:15:51.869Z,101296.37
2018-10-06T10:18:21.241Z,101296.38
2018-10-06T10:20:50.193Z,101295.28
2018-10-06T10:23:19.477Z,101293.94
2018-10-06T10:25:48.620Z,101296.62
2018-10-06T10:28:17.670Z,101293.08
2018-10-06T10:30:47.482Z,101291.44
2018-10-06T10:33:16.792Z,101282.73
2018-10-06T10:35:46.160Z,101290.09
2018-10-06T10:38:18.007Z,101289.00
2018-10-06T10:40:47.742Z,101288.19
2018-10-06T10:43:17.004Z,101296.09
2018-10-06T10:45:46.453Z,101293.64
2018-10-06T10:48:15.726Z,101287.94
2018-10-06T10:50:45.667Z,101284.37
2018-10-06T10:53:14.691Z,101281.37
2018-10-06T10:55:43.881Z,101298.82
2018-10-06T10:58:12.968Z,101290.66
2018-10-06T11:00:42.095Z,101297.19
2018-10-06T11:03:11.451Z,101305.91
2018-10-06T11:05:40.498Z,101312.20
2018-10-06T11:08:10.334Z,101307.30
2018-10-06T11:10:40.347Z,101300.22
2018-10-06T11:13:10.407Z,101295.28
2018-10-06T11:15:39.833Z,101303.48
2018-10-06T11:18:10.045Z,101294.48
2018-10-06T11:20:39.126Z,101313.83
2018-10-06T11:23:08.273Z,101306.20
2018-10-06T11:25:42.568Z,101305.66
2018-10-06T11:28:11.750Z,101302.95
2018-10-06T11:30:40.869Z,101299.10
2018-10-06T11:33:09.999Z,101289.84
2018-10-06T11:35:39.131Z,101290.92
2018-10-06T11:38:08.696Z,101286.83
2018-10-06T11:40:40.413Z,101286.83
2018-10-06T11:43:09.496Z,101290.92
2018-10-06T11:45:39.584Z,101291.73
2018-10-06T11:48:08.805Z,101296.66
2018-10-06T11:50:38.090Z,101294.19
2018-10-06T11:53:07.389Z,101291.75
2018-10-06T11:55:36.582Z,101296.39
2018-10-06T11:58:05.920Z,101290.92
2018-10-06T12:00:35.990Z,101302.67
2018-10-06T12:03:05.009Z,101298.03
2018-10-06T12:05:34.209Z,101300.20
2018-10-06T12:08:03.815Z,101294.21
2018-10-06T12:10:32.854Z,101297.47
2018-10-06T12:13:01.976Z,101308.12
2018-10-06T12:15:31.088Z,101311.38
2018-10-06T12:23:39.342Z,101316.31
2018-10-06T12:26:09.404Z,101314.12
2018-10-06T12:28:38.506Z,101312.20
2018-10-06T12:31:07.607Z,101307.58
2018-10-06T12:33:36.893Z,101325.59
2018-10-06T12:36:05.996Z,101312.75
2018-10-06T12:38:37.225Z,101321.19
2018-10-06T12:41:06.441Z,101320.92
2018-10-06T12:43:35.633Z,101327.47
2018-10-06T12:46:09.088Z,101344.12
2018-10-06T12:48:38.169Z,101334.56
2018-10-06T12:51:08.257Z,101340.55
2018-10-06T12:53:37.307Z,101353.66
2018-10-06T12:56:06.523Z,101355.03
2018-10-06T12:58:35.571Z,101352.84
2018-10-06T13:01:04.631Z,101358.34
2018-10-06T13:03:33.834Z,101356.97
2018-10-06T13:06:03.022Z,101365.42
2018-10-06T13:08:32.140Z,101365.42
2018-10-06T13:11:02.711Z,101365.41
2018-10-06T13:16:39.385Z,101367.31
2018-10-06T13:19:08.531Z,101371.69
2018-10-06T13:21:37.601Z,101372.52
2018-10-06T13:24:06.877Z,101375.50
2018-10-06T13:26:36.132Z,101364.33
2018-10-06T13:29:05.727Z,101364.59
2018-10-06T13:31:35.165Z,101370.31
2018-10-06T13:34:04.350Z,101387.22
2018-10-06T13:36:33.924Z,101386.95
2018-10-06T13:39:03.403Z,101390.75
2018-10-06T13:41:32.981Z,101389.96
2018-10-06T13:44:03.090Z,101397.61
2018-10-06T13:46:32.618Z,101401.15
2018-10-06T13:49:02.083Z,101398.71
2018-10-06T13:51:31.370Z,101401.16
2018-10-06T13:54:00.977Z,101403.63
2018-10-06T13:56:30.093Z,101406.63
2018-10-06T13:58:59.303Z,101406.62
2018-10-06T14:01:31.470Z,101409.91
2018-10-06T14:04:01.235Z,101431.47
2018-10-06T14:06:30.368Z,101433.13
2018-10-06T14:08:59.457Z,101428.20
2018-10-06T14:11:33.173Z,101435.29
2018-10-06T14:14:02.598Z,101427.09
2018-10-06T14:16:33.918Z,101435.83
2018-10-06T14:19:03.013Z,101420.00
2018-10-06T14:21:32.200Z,101426.29
2018-10-06T14:24:01.304Z,101414.55
2018-10-06T14:26:30.436Z,101435.58
2018-10-06T14:29:00.386Z,101436.12
2018-10-06T14:31:31.646Z,101444.83
2018-10-06T14:34:00.764Z,101445.93
2018-10-06T14:36:29.900Z,101435.56
2018-10-06T14:39:00.265Z,101455.48
2018-10-06T14:41:29.760Z,101448.94
2018-10-06T14:43:58.857Z,101456.84
2018-10-06T14:46:28.047Z,101456.03
2018-10-06T14:48:58.031Z,101454.95
2018-10-06T14:51:27.253Z,101447.89
2018-10-06T14:53:56.360Z,101444.07
2018-10-06T14:56:25.388Z,101446.80
2018-10-06T14:58:54.384Z,101459.09
2018-10-06T15:01:23.514Z,101456.06
2018-10-06T15:03:52.514Z,101447.34
2018-10-06T15:06:21.735Z,101462.36
2018-10-06T15:08:50.808Z,101461.80
2018-10-06T15:11:20.197Z,101468.38
2018-10-06T15:13:49.285Z,101474.89
2018-10-06T15:16:18.317Z,101473.25
2018-10-06T15:18:47.463Z,101481.16
2018-10-06T15:21:16.856Z,101482.26
2018-10-06T15:23:45.921Z,101480.86
2018-10-06T15:26:16.246Z,101488.77
2018-10-06T15:28:45.448Z,101487.98
2018-10-06T15:31:15.972Z,101487.72
2018-10-06T15:33:45.088Z,101493.73
2018-10-06T15:36:14.213Z,101512.28
2018-10-06T15:38:43.245Z,101507.09
2018-10-06T15:41:13.150Z,101516.38
2018-10-06T15:43:42.444Z,101506.81
2018-10-06T15:46:11.517Z,101517.72
2018-10-06T15:48:41.175Z,101520.44
2018-10-06T15:51:10.503Z,101522.35
2018-10-06T15:53:39.640Z,101526.70
2018-10-06T15:56:08.873Z,101532.73
2018-10-06T15:58:37.965Z,101536.27
2018-10-06T16:01:07.576Z,101530.27
2018-10-06T16:03:36.665Z,101530.54
2018-10-06T16:06:05.751Z,101538.45
2018-10-06T16:08:34.761Z,101539.28
2018-10-06T16:11:03.973Z,101544.20
2018-10-06T16:13:32.929Z,101541.73
2018-10-06T16:16:02.043Z,101546.66
2018-10-06T16:18:31.176Z,101544.48
2018-10-06T16:21:00.296Z,101559.76
2018-10-06T16:23:29.330Z,101540.38
2018-10-06T16:25:58.452Z,101558.41
2018-10-06T16:28:27.562Z,101561.94
2018-10-06T16:30:57.084Z,101564.41
2018-10-06T16:33:26.168Z,101565.75
2018-10-06T16:35:55.180Z,101580.21
2018-10-06T16:38:24.264Z,101586.49
2018-10-06T16:40:54.263Z,101585.38
2018-10-06T16:43:24.244Z,101590.27
2018-10-06T16:45:53.295Z,101592.16
2018-10-06T16:48:22.389Z,101595.13
2018-10-06T16:50:51.422Z,101609.02
2018-10-06T16:53:20.469Z,101617.19
2018-10-06T16:55:49.740Z,101620.45
2018-10-06T16:58:18.980Z,101617.72
2018-10-06T17:00:48.066Z,101625.38
2018-10-06T17:03:17.176Z,101624.01
2018-10-06T17:05:46.169Z,101634.92
2018-10-06T17:08:15.491Z,101632.46
2018-10-06T17:10:46.990Z,101644.70
2018-10-06T17:13:16.318Z,101640.33
2018-10-06T17:15:45.488Z,101648.75
2018-10-06T17:18:14.477Z,101649.28
2018-10-06T17:20:43.792Z,101650.06
2018-10-06T17:23:12.916Z,101647.59
2018-10-06T17:25:43.300Z,101656.55
2018-10-06T17:28:12.416Z,101655.42
2018-10-06T17:30:42.009Z,101665.50
2018-10-06T17:33:11.065Z,101665.73
2018-10-06T17:35:40.198Z,101666.80
2018-10-06T17:38:09.318Z,101676.05
2018-10-06T17:40:38.504Z,101675.74
2018-10-06T17:43:07.897Z,101687.74
2018-10-06T17:45:37.068Z,101680.13
2018-10-06T17:48:06.434Z,101688.31
2018-10-06T17:50:36.634Z,101693.76
2018-10-06T17:53:05.624Z,101696.48
2018-10-06T17:55:35.699Z,101695.13
2018-10-06T17:58:04.745Z,101704.41
2018-10-06T18:00:33.782Z,101714.80
2018-10-06T18:03:02.813Z,101714.58
2018-10-06T18:05:31.833Z,101725.78
2018-10-06T18:08:00.866Z,101724.72
2018-10-06T18:10:29.917Z,101736.46
2018-10-06T18:12:59.058Z,101738.95
2018-10-06T18:15:28.285Z,101745.51
2018-10-06T18:17:57.363Z,101744.41
2018-10-06T18:20:26.527Z,101748.20
2018-10-06T18:22:56.216Z,101758.31
2018-10-06T18:25:25.335Z,101763.73
2018-10-06T18:27:54.475Z,101772.70
2018-10-06T18:30:23.729Z,101770.78
2018-10-06T18:32:52.877Z,101785.24
2018-10-06T18:35:22.473Z,101786.87
2018-10-06T18:37:51.560Z,101789.86
2018-10-06T18:40:20.645Z,101791.23
2018-10-06T18:42:49.726Z,101801.34
2018-10-06T18:45:19.778Z,101797.25
2018-10-06T18:47:50.387Z,101810.62
2018-10-06T18:50:19.487Z,101814.41
2018-10-06T18:52:48.642Z,101815.77
2018-10-06T18:55:19.975Z,101839.17
2018-10-06T18:57:49.214Z,101829.88
2018-10-06T19:00:18.334Z,101829.84
2018-10-06T19:02:48.010Z,101850.25
2018-10-06T19:05:18.122Z,101862.25
2018-10-06T19:07:47.406Z,101869.33
2018-10-06T19:10:16.482Z,101875.83
2018-10-06T19:12:45.592Z,101880.71
2018-10-06T19:15:14.594Z,101886.68
2018-10-06T19:17:43.821Z,101882.02
2018-10-06T19:20:13.041Z,101896.44
2018-10-06T19:22:42.809Z,101905.94
2018-10-06T19:25:12.637Z,101909.70
2018-10-06T19:27:41.720Z,101911.86
2018-10-06T19:30:11.325Z,101920.28
2018-10-06T19:32:40.397Z,101934.39
2018-10-06T19:35:10.420Z,101937.90
2018-10-06T19:37:39.815Z,101949.31
2018-10-06T19:40:09.347Z,101952.52
2018-10-06T19:42:38.479Z,101949.70
2018-10-06T19:45:07.630Z,101957.27
2018-10-06T19:47:36.897Z,101964.87
2018-10-06T19:50:06.096Z,101959.63
2018-10-06T19:52:36.240Z,101978.67
2018-10-06T19:55:05.324Z,101972.07
2018-10-06T19:57:34.432Z,101995.73
2018-10-06T20:00:03.480Z,101989.39
2018-10-06T20:02:33.124Z,101995.63
2018-10-06T20:05:02.104Z,102003.52
2018-10-06T20:07:31.413Z,102009.75
2018-10-06T20:10:00.550Z,102012.98
2018-10-06T20:12:29.913Z,102011.81
2018-10-06T20:15:00.184Z,102025.63
2018-10-06T20:17:31.902Z,102026.13
2018-10-06T20:20:00.928Z,102038.05
2018-10-06T20:22:29.949Z,102051.07
2018-10-06T20:24:58.965Z,102048.88
2018-10-06T20:27:27.979Z,102052.69
2018-10-06T20:29:57.215Z,102055.09
2018-10-06T20:32:26.766Z,102058.59
2018-10-06T20:34:55.879Z,102062.94
2018-10-06T20:37:44.865Z,102071.07
2018-10-06T20:40:15.550Z,102068.81
2018-10-06T20:42:44.616Z,102071.27
2018-10-06T20:45:13.736Z,102091.40
2018-10-06T20:47:43.477Z,102073.40
2018-10-06T20:50:12.553Z,102088.09
2018-10-06T20:52:41.632Z,102100.27
2018-10-06T20:55:10.732Z,102086.91
2018-10-06T20:57:39.757Z,102098.58
2018-10-06T21:00:09.406Z,102087.69
2018-10-06T21:02:38.418Z,102095.02
2018-10-06T21:05:07.701Z,102090.14
2018-10-06T21:07:36.864Z,102096.10
2018-10-06T21:10:05.908Z,102103.74
2018-10-06T21:12:34.980Z,102107.83
2018-10-06T21:15:04.026Z,102114.31
2018-10-06T21:17:33.053Z,102123.31
2018-10-06T21:20:02.148Z,102133.09
2018-10-06T21:22:31.287Z,102131.08
2018-10-06T21:25:00.420Z,102120.72
2018-10-06T21:27:29.538Z,102132.09
2018-10-06T21:29:58.550Z,102128.02
2018-10-06T21:32:27.810Z,102132.86
2018-10-06T21:34:56.892Z,102135.00
2018-10-06T21:37:26.038Z,102139.33
2018-10-06T21:39:58.346Z,102134.97
2018-10-06T21:42:27.672Z,102129.45
2018-10-06T21:44:56.743Z,102141.11
2018-10-06T21:47:26.857Z,102144.91
2018-10-06T21:49:55.851Z,102145.96
2018-10-06T21:52:24.856Z,102151.72
2018-10-06T21:54:53.871Z,102148.99
2018-10-06T21:57:23.675Z,102149.77
2018-10-06T21:59:52.881Z,102141.84
2018-10-06T22:02:22.231Z,102146.17
2018-10-06T22:04:51.267Z,102149.34
2018-10-06T22:07:21.330Z,102146.34
2018-10-06T22:09:51.120Z,102149.56
2018-10-06T22:12:20.927Z,102154.69
2018-10-06T22:14:50.071Z,102159.61
2018-10-06T22:17:19.096Z,102153.05
2018-10-06T22:19:48.184Z,102156.23
2018-10-06T22:22:17.285Z,102165.75
2018-10-06T22:24:46.385Z,102164.94
2018-10-06T22:27:15.421Z,102163.27
2018-10-06T22:29:44.527Z,102163.52
2018-10-06T22:32:13.658Z,102165.16
2018-10-06T22:34:58.703Z,102163.52
2018-10-06T22:37:44.230Z,102177.63
2018-10-06T22:40:29.614Z,102173.52
2018-10-06T22:42:59.118Z,102171.56
2018-10-06T22:45:43.720Z,102171.49
2018-10-06T22:48:28.707Z,102177.45
2018-10-06T22:51:10.888Z,102175.53
2018-10-06T22:53:55.400Z,102175.98
2018-10-06T22:56:24.733Z,102181.67
2018-10-06T22:59:06.893Z,102171.56
2018-10-06T23:01:53.060Z,102191.14
2018-10-06T23:04:34.494Z,102199.47
2018-10-06T23:07:19.185Z,102197.80
2018-10-06T23:10:07.251Z,102187.69
2018-10-06T23:12:53.006Z,102190.13
2018-10-06T23:15:46.584Z,102186.22
2018-10-06T23:18:15.954Z,102195.13
2018-10-06T23:21:01.105Z,102196.14
2018-10-06T23:23:30.332Z,102191.91
2018-10-06T23:26:17.583Z,102201.07
2018-10-06T23:28:46.601Z,102200.79
2018-10-06T23:31:15.698Z,102201.31
2018-10-06T23:33:44.832Z,102200.00
2018-10-06T23:36:13.828Z,102197.27
2018-10-06T23:38:43.079Z,102194.88
2018-10-06T23:41:12.233Z,102192.75
2018-10-06T23:43:41.306Z,102185.64
2018-10-06T23:46:10.710Z,102184.77
2018-10-06T23:48:40.329Z,102180.09
2018-10-06T23:51:10.853Z,102185.77
2018-10-06T23:53:40.110Z,102185.41
2018-10-06T23:56:10.004Z,102179.66
2018-10-06T23:58:39.045Z,102182.33
